Terminal Aerodrome Forecast
Issued by NWS Charleston, WV

Current Version | Previous Version | Graphics & Text | Print | Product List | Glossary Off
Versions: 1 2 3 4 5 6 7 8 9 10 11 12 13 14 15 16 17 18 19 20 21 22 23 24 25 26

000
FTUS41 KRLX 021127
TAFBKW
TAF
KBKW 021127Z 0212/0312 34005KT 1/4SM FG OVC001
      TEMPO 0212/0215 2SM BR OVC004
     FM021500 33004KT 5SM BR BKN006
     FM021900 35004KT P6SM BKN012
     FM030100 02004KT P6SM OVC020
     FM030600 08005KT P6SM OVC015
     FM030900 11006KT P6SM BKN010=

USA.gov is the U.S. government's official web portal to all federal, state and local government web resources and services.